sensor_id;sensor_type;location;lat;lon;timestamp;pressure;altitude;pressure_sealevel;temperature;humidity
4012;BME280;2020;48.682;9.024;2023-08-24T00:02:09;96671.09;;;20.72;65.26
4012;BME280;2020;48.682;9.024;2023-08-24T00:04:35;96671.72;;;20.74;65.43
4012;BME280;2020;48.682;9.024;2023-08-24T00:07:01;96667.00;;;20.83;65.08
4012;BME280;2020;48.682;9.024;2023-08-24T00:09:29;96677.75;;;20.88;64.36
4012;BME280;2020;48.682;9.024;2023-08-24T00:11:54;96663.75;;;20.81;64.97
4012;BME280;2020;48.682;9.024;2023-08-24T00:14:20;96670.31;;;20.71;65.05
4012;BME280;2020;48.682;9.024;2023-08-24T00:16:46;96669.63;;;20.51;65.93
4012;BME280;2020;48.682;9.024;2023-08-24T00:19:11;96679.00;;;20.46;65.99
4012;BME280;2020;48.682;9.024;2023-08-24T00:21:36;96669.00;;;20.23;66.83
4012;BME280;2020;48.682;9.024;2023-08-24T00:24:02;96668.28;;;20.02;68.02
4012;BME280;2020;48.682;9.024;2023-08-24T00:26:27;96666.28;;;19.98;67.80
4012;BME280;2020;48.682;9.024;2023-08-24T00:28:53;96658.34;;;19.98;67.22
4012;BME280;2020;48.682;9.024;2023-08-24T00:31:18;96658.03;;;20.20;66.81
4012;BME280;2020;48.682;9.024;2023-08-24T00:33:43;96659.22;;;20.24;66.99
4012;BME280;2020;48.682;9.024;2023-08-24T00:36:09;96658.34;;;20.37;66.21
4012;BME280;2020;48.682;9.024;2023-08-24T00:38:34;96646.09;;;20.42;65.99
4012;BME280;2020;48.682;9.024;2023-08-24T00:40:59;96646.78;;;20.31;66.40
4012;BME280;2020;48.682;9.024;2023-08-24T00:43:25;96640.22;;;20.08;67.23
4012;BME280;2020;48.682;9.024;2023-08-24T00:45:51;96635.00;;;19.95;68.12
4012;BME280;2020;48.682;9.024;2023-08-24T00:48:18;96634.63;;;19.84;68.79
4012;BME280;2020;48.682;9.024;2023-08-24T00:50:43;96628.97;;;19.74;68.86
4012;BME280;2020;48.682;9.024;2023-08-24T00:53:09;96633.06;;;19.70;69.46
4012;BME280;2020;48.682;9.024;2023-08-24T00:55:34;96622.91;;;19.67;69.38
4012;BME280;2020;48.682;9.024;2023-08-24T00:57:59;96620.41;;;19.79;69.32
4012;BME280;2020;48.682;9.024;2023-08-24T01:00:25;96626.25;;;19.87;67.53
4012;BME280;2020;48.682;9.024;2023-08-24T01:02:50;96629.72;;;19.95;67.81
4012;BME280;2020;48.682;9.024;2023-08-24T01:05:15;96632.16;;;19.96;68.03
4012;BME280;2020;48.682;9.024;2023-08-24T01:07:41;96625.66;;;19.85;68.42
4012;BME280;2020;48.682;9.024;2023-08-24T01:10:07;96626.69;;;19.84;68.14
4012;BME280;2020;48.682;9.024;2023-08-24T01:12:45;96630.97;;;19.92;68.02
4012;BME280;2020;48.682;9.024;2023-08-24T01:15:32;96631.75;;;19.93;68.09
4012;BME280;2020;48.682;9.024;2023-08-24T01:18:11;96619.44;;;19.73;69.50
4012;BME280;2020;48.682;9.024;2023-08-24T01:20:39;96620.50;;;19.58;69.95
4012;BME280;2020;48.682;9.024;2023-08-24T01:23:20;96619.91;;;19.56;70.03
4012;BME280;2020;48.682;9.024;2023-08-24T01:25:53;96618.84;;;19.64;69.67
4012;BME280;2020;48.682;9.024;2023-08-24T01:28:22;96607.50;;;19.64;69.71
4012;BME280;2020;48.682;9.024;2023-08-24T01:30:48;96609.88;;;19.72;69.11
4012;BME280;2020;48.682;9.024;2023-08-24T01:33:14;96607.91;;;19.61;69.86
4012;BME280;2020;48.682;9.024;2023-08-24T01:35:40;96606.28;;;19.60;70.00
4012;BME280;2020;48.682;9.024;2023-08-24T01:38:06;96609.16;;;19.51;70.30
4012;BME280;2020;48.682;9.024;2023-08-24T01:40:53;96606.34;;;19.46;70.50
4012;BME280;2020;48.682;9.024;2023-08-24T01:43:25;96604.69;;;19.52;70.15
4012;BME280;2020;48.682;9.024;2023-08-24T01:45:56;96611.16;;;19.63;69.63
4012;BME280;2020;48.682;9.024;2023-08-24T01:48:23;96606.66;;;19.70;68.95
4012;BME280;2020;48.682;9.024;2023-08-24T01:50:50;96614.75;;;19.75;69.43
4012;BME280;2020;48.682;9.024;2023-08-24T01:53:16;96600.03;;;19.47;70.06
4012;BME280;2020;48.682;9.024;2023-08-24T01:55:41;96591.34;;;19.33;71.01
4012;BME280;2020;48.682;9.024;2023-08-24T01:58:06;96599.50;;;19.32;71.21
4012;BME280;2020;48.682;9.024;2023-08-24T02:00:31;96597.22;;;19.42;70.30
4012;BME280;2020;48.682;9.024;2023-08-24T02:02:57;96605.97;;;19.36;70.73
4012;BME280;2020;48.682;9.024;2023-08-24T02:05:22;96601.06;;;19.39;70.99
4012;BME280;2020;48.682;9.024;2023-08-24T02:07:52;96598.06;;;19.36;70.61
4012;BME280;2020;48.682;9.024;2023-08-24T02:10:17;96598.28;;;19.27;70.76
4012;BME280;2020;48.682;9.024;2023-08-24T02:12:43;96598.28;;;19.14;71.58
4012;BME280;2020;48.682;9.024;2023-08-24T02:15:08;96593.25;;;19.06;72.19
4012;BME280;2020;48.682;9.024;2023-08-24T02:17:33;96600.75;;;19.09;72.32
4012;BME280;2020;48.682;9.024;2023-08-24T02:19:59;96599.50;;;19.18;71.83
4012;BME280;2020;48.682;9.024;2023-08-24T02:22:24;96605.19;;;19.28;70.94
4012;BME280;2020;48.682;9.024;2023-08-24T02:24:49;96596.44;;;19.35;70.94
4012;BME280;2020;48.682;9.024;2023-08-24T02:27:15;96598.66;;;19.38;70.75
4012;BME280;2020;48.682;9.024;2023-08-24T02:29:40;96595.41;;;19.36;70.11
4012;BME280;2020;48.682;9.024;2023-08-24T02:32:05;96596.63;;;19.33;71.02
4012;BME280;2020;48.682;9.024;2023-08-24T02:34:30;96593.81;;;19.21;71.15
4012;BME280;2020;48.682;9.024;2023-08-24T02:36:56;96592.22;;;19.13;71.56
4012;BME280;2020;48.682;9.024;2023-08-24T02:39:22;96595.09;;;19.05;72.25
4012;BME280;2020;48.682;9.024;2023-08-24T02:41:47;96598.31;;;18.94;72.82
4012;BME280;2020;48.682;9.024;2023-08-24T02:44:12;96596.53;;;18.61;75.09
4012;BME280;2020;48.682;9.024;2023-08-24T02:46:37;96595.50;;;18.62;75.31
4012;BME280;2020;48.682;9.024;2023-08-24T02:49:03;96581.72;;;18.53;75.88
4012;BME280;2020;48.682;9.024;2023-08-24T02:51:28;96582.94;;;18.57;76.11
4012;BME280;2020;48.682;9.024;2023-08-24T02:53:53;96581.91;;;18.45;76.30
4012;BME280;2020;48.682;9.024;2023-08-24T02:56:19;96574.00;;;18.51;76.27
4012;BME280;2020;48.682;9.024;2023-08-24T02:58:44;96582.13;;;18.63;75.95
4012;BME280;2020;48.682;9.024;2023-08-24T03:01:09;96586.56;;;18.69;75.30
4012;BME280;2020;48.682;9.024;2023-08-24T03:03:35;96595.47;;;18.82;74.48
4012;BME280;2020;48.682;9.024;2023-08-24T03:06:03;96601.59;;;18.82;75.23
4012;BME280;2020;48.682;9.024;2023-08-24T03:08:30;96584.16;;;18.61;75.77
4012;BME280;2020;48.682;9.024;2023-08-24T03:10:55;96576.84;;;18.50;76.62
4012;BME280;2020;48.682;9.024;2023-08-24T03:13:21;96578.47;;;18.37;77.28
4012;BME280;2020;48.682;9.024;2023-08-24T03:15:46;96568.75;;;18.31;77.69
4012;BME280;2020;48.682;9.024;2023-08-24T03:18:12;96563.69;;;18.36;77.64
4012;BME280;2020;48.682;9.024;2023-08-24T03:20:38;96564.28;;;18.25;78.06
4012;BME280;2020;48.682;9.024;2023-08-24T03:23:03;96561.25;;;18.28;78.05
4012;BME280;2020;48.682;9.024;2023-08-24T03:25:29;96553.53;;;18.47;77.43
4012;BME280;2020;48.682;9.024;2023-08-24T03:27:54;96562.03;;;18.62;76.81
4012;BME280;2020;48.682;9.024;2023-08-24T03:30:20;96560.22;;;18.69;75.41
4012;BME280;2020;48.682;9.024;2023-08-24T03:32:45;96557.34;;;18.78;75.50
4012;BME280;2020;48.682;9.024;2023-08-24T03:35:10;96550.88;;;18.74;75.22
4012;BME280;2020;48.682;9.024;2023-08-24T03:37:36;96551.91;;;18.59;75.79
4012;BME280;2020;48.682;9.024;2023-08-24T03:40:01;96542.38;;;18.65;76.06
4012;BME280;2020;48.682;9.024;2023-08-24T03:42:28;96546.66;;;18.66;75.72
4012;BME280;2020;48.682;9.024;2023-08-24T03:44:53;96542.59;;;18.63;75.97
4012;BME280;2020;48.682;9.024;2023-08-24T03:47:18;96538.72;;;18.73;75.04
4012;BME280;2020;48.682;9.024;2023-08-24T03:49:43;96531.44;;;18.68;75.59
4012;BME280;2020;48.682;9.024;2023-08-24T03:52:09;96528.19;;;18.59;76.68
4012;BME280;2020;48.682;9.024;2023-08-24T03:54:34;96527.38;;;18.52;77.44
4012;BME280;2020;48.682;9.024;2023-08-24T03:57:01;96528.78;;;18.61;76.69
4012;BME280;2020;48.682;9.024;2023-08-24T03:59:27;96526.97;;;18.68;76.15
4012;BME280;2020;48.682;9.024;2023-08-24T04:01:52;96521.69;;;18.68;76.05
4012;BME280;2020;48.682;9.024;2023-08-24T04:04:17;96518.84;;;18.63;76.89
4012;BME280;2020;48.682;9.024;2023-08-24T04:06:43;96513.19;;;18.53;77.75
4012;BME280;2020;48.682;9.024;2023-08-24T04:09:08;96515.22;;;18.51;77.87
4012;BME280;2020;48.682;9.024;2023-08-24T04:11:34;96512.59;;;18.37;77.94
4012;BME280;2020;48.682;9.024;2023-08-24T04:13:59;96519.09;;;18.41;77.85
4012;BME280;2020;48.682;9.024;2023-08-24T04:16:25;96519.28;;;18.47;77.63
4012;BME280;2020;48.682;9.024;2023-08-24T04:18:50;96505.09;;;18.48;77.59
4012;BME280;2020;48.682;9.024;2023-08-24T04:21:16;96513.59;;;18.50;77.37
4012;BME280;2020;48.682;9.024;2023-08-24T04:23:41;96505.09;;;18.48;78.07
4012;BME280;2020;48.682;9.024;2023-08-24T04:26:12;96506.72;;;18.49;77.87
4012;BME280;2020;48.682;9.024;2023-08-24T04:28:38;96505.50;;;18.45;77.84
4012;BME280;2020;48.682;9.024;2023-08-24T04:31:03;96504.28;;;18.34;78.54
4012;BME280;2020;48.682;9.024;2023-08-24T04:33:28;96498.00;;;18.41;77.73
4012;BME280;2020;48.682;9.024;2023-08-24T04:35:54;96489.28;;;18.48;77.31
4012;BME280;2020;48.682;9.024;2023-08-24T04:38:19;96495.78;;;18.52;77.22
4012;BME280;2020;48.682;9.024;2023-08-24T04:40:50;96493.31;;;18.57;76.99
4012;BME280;2020;48.682;9.024;2023-08-24T04:43:16;96492.91;;;18.60;76.72
4012;BME280;2020;48.682;9.024;2023-08-24T04:45:41;96486.81;;;18.66;76.19
4012;BME280;2020;48.682;9.024;2023-08-24T04:48:07;96491.69;;;18.69;75.82
4012;BME280;2020;48.682;9.024;2023-08-24T04:50:32;96495.13;;;18.63;76.26
4012;BME280;2020;48.682;9.024;2023-08-24T04:52:57;96498.38;;;18.65;74.98
4012;BME280;2020;48.682;9.024;2023-08-24T04:55:23;96491.69;;;18.69;74.61
4012;BME280;2020;48.682;9.024;2023-08-24T04:57:48;96496.13;;;18.76;75.97
4012;BME280;2020;48.682;9.024;2023-08-24T05:00:14;96494.69;;;18.80;74.49
4012;BME280;2020;48.682;9.024;2023-08-24T05:02:42;96496.31;;;18.81;75.11
4012;BME280;2020;48.682;9.024;2023-08-24T05:05:08;96494.88;;;18.85;76.42
4012;BME280;2020;48.682;9.024;2023-08-24T05:07:35;96494.28;;;18.83;76.30
4012;BME280;2020;48.682;9.024;2023-08-24T05:10:00;96497.28;;;18.93;76.28
4012;BME280;2020;48.682;9.024;2023-08-24T05:12:25;96501.97;;;18.91;76.12
4012;BME280;2020;48.682;9.024;2023-08-24T05:14:51;96498.13;;;18.94;76.49
4012;BME280;2020;48.682;9.024;2023-08-24T05:17:16;96496.50;;;18.86;76.94
4012;BME280;2020;48.682;9.024;2023-08-24T05:19:41;96492.00;;;18.93;76.50
4012;BME280;2020;48.682;9.024;2023-08-24T05:22:06;96490.63;;;18.84;76.88
4012;BME280;2020;48.682;9.024;2023-08-24T05:24:32;96484.34;;;18.85;76.96
4012;BME280;2020;48.682;9.024;2023-08-24T05:26:57;96481.31;;;18.75;77.29
4012;BME280;2020;48.682;9.024;2023-08-24T05:29:22;96489.59;;;18.85;76.58
4012;BME280;2020;48.682;9.024;2023-08-24T05:31:47;96485.16;;;18.79;76.59
4012;BME280;2020;48.682;9.024;2023-08-24T05:34:13;96483.13;;;18.81;77.30
4012;BME280;2020;48.682;9.024;2023-08-24T05:36:38;96480.31;;;18.76;77.76
4012;BME280;2020;48.682;9.024;2023-08-24T05:39:03;96477.63;;;18.89;77.19
4012;BME280;2020;48.682;9.024;2023-08-24T05:41:29;96470.50;;;18.96;76.81
4012;BME280;2020;48.682;9.024;2023-08-24T05:43:54;96470.13;;;18.99;76.80
4012;BME280;2020;48.682;9.024;2023-08-24T05:46:19;96464.03;;;18.99;76.10
4012;BME280;2020;48.682;9.024;2023-08-24T05:48:44;96465.19;;;19.10;76.42
4012;BME280;2020;48.682;9.024;2023-08-24T05:51:10;96474.72;;;19.11;77.12
4012;BME280;2020;48.682;9.024;2023-08-24T05:53:37;96475.56;;;19.05;77.81
4012;BME280;2020;48.682;9.024;2023-08-24T05:56:03;96472.50;;;19.08;77.35
4012;BME280;2020;48.682;9.024;2023-08-24T05:58:28;96464.75;;;19.26;76.16
4012;BME280;2020;48.682;9.024;2023-08-24T06:00:58;96467.13;;;19.35;75.36
4012;BME280;2020;48.682;9.024;2023-08-24T06:03:24;96467.50;;;19.45;75.31
4012;BME280;2020;48.682;9.024;2023-08-24T06:05:50;96471.91;;;19.51;75.34
4012;BME280;2020;48.682;9.024;2023-08-24T06:08:15;96470.28;;;19.50;74.16
4012;BME280;2020;48.682;9.024;2023-08-24T06:10:41;96469.06;;;19.53;74.37
4012;BME280;2020;48.682;9.024;2023-08-24T06:13:06;96471.09;;;19.51;73.95
4012;BME280;2020;48.682;9.024;2023-08-24T06:15:31;96473.91;;;19.56;73.82
4012;BME280;2020;48.682;9.024;2023-08-24T06:17:57;96465.38;;;19.61;74.36
4012;BME280;2020;48.682;9.024;2023-08-24T06:20:24;96473.81;;;19.69;74.04
4012;BME280;2020;48.682;9.024;2023-08-24T06:22:49;96475.41;;;19.77;72.72
4012;BME280;2020;48.682;9.024;2023-08-24T06:25:15;96483.31;;;19.77;74.21
4012;BME280;2020;48.682;9.024;2023-08-24T06:27:40;96470.13;;;19.77;73.89
4012;BME280;2020;48.682;9.024;2023-08-24T06:30:06;96473.78;;;19.76;73.78
4012;BME280;2020;48.682;9.024;2023-08-24T06:32:32;96474.53;;;19.83;73.95
4012;BME280;2020;48.682;9.024;2023-08-24T06:34:57;96476.16;;;19.91;73.77
4012;BME280;2020;48.682;9.024;2023-08-24T06:37:22;96481.81;;;19.95;74.42
4012;BME280;2020;48.682;9.024;2023-08-24T06:39:48;96490.31;;;19.97;73.13
4012;BME280;2020;48.682;9.024;2023-08-24T06:42:13;96496.78;;;20.01;72.47
4012;BME280;2020;48.682;9.024;2023-08-24T06:44:38;96503.28;;;20.05;72.70
4012;BME280;2020;48.682;9.024;2023-08-24T06:47:04;96509.75;;;20.09;73.34
4012;BME280;2020;48.682;9.024;2023-08-24T06:49:29;96517.47;;;20.11;73.46
4012;BME280;2020;48.682;9.024;2023-08-24T06:51:54;96530.44;;;20.12;74.47
4012;BME280;2020;48.682;9.024;2023-08-24T06:54:20;96538.97;;;20.14;73.92
4012;BME280;2020;48.682;9.024;2023-08-24T06:56:45;96537.16;;;20.15;74.09
4012;BME280;2020;48.682;9.024;2023-08-24T06:59:10;96554.56;;;20.23;73.89
4012;BME280;2020;48.682;9.024;2023-08-24T07:01:38;96554.38;;;20.17;73.39
4012;BME280;2020;48.682;9.024;2023-08-24T07:04:03;96547.44;;;20.23;74.14
4012;BME280;2020;48.682;9.024;2023-08-24T07:06:29;96535.72;;;20.12;73.73
4012;BME280;2020;48.682;9.024;2023-08-24T07:08:54;96529.59;;;20.19;73.49
4012;BME280;2020;48.682;9.024;2023-08-24T07:11:19;96519.44;;;20.15;73.72
4012;BME280;2020;48.682;9.024;2023-08-24T07:13:45;96514.56;;;20.19;72.67
4012;BME280;2020;48.682;9.024;2023-08-24T07:16:11;96510.03;;;20.26;72.52
4012;BME280;2020;48.682;9.024;2023-08-24T07:18:36;96505.41;;;20.40;71.62
4012;BME280;2020;48.682;9.024;2023-08-24T07:21:02;96491.06;;;20.55;71.64
4012;BME280;2020;48.682;9.024;2023-08-24T07:23:27;96483.47;;;20.84;70.58
4012;BME280;2020;48.682;9.024;2023-08-24T07:25:53;96485.53;;;21.00;69.39
4012;BME280;2020;48.682;9.024;2023-08-24T07:28:18;96486.16;;;21.33;68.11
4012;BME280;2020;48.682;9.024;2023-08-24T07:30:44;96481.13;;;21.74;67.15
4012;BME280;2020;48.682;9.024;2023-08-24T07:33:09;96477.97;;;21.96;65.57
4012;BME280;2020;48.682;9.024;2023-08-24T07:35:35;96475.34;;;22.19;65.00
4012;BME280;2020;48.682;9.024;2023-08-24T07:38:00;96477.66;;;22.40;64.27
4012;BME280;2020;48.682;9.024;2023-08-24T07:40:26;96461.09;;;22.56;63.93
4012;BME280;2020;48.682;9.024;2023-08-24T07:42:52;96469.94;;;22.74;63.30
4012;BME280;2020;48.682;9.024;2023-08-24T07:45:20;96481.56;;;22.97;62.94
4012;BME280;2020;48.682;9.024;2023-08-24T07:47:45;96486.91;;;23.14;61.67
4012;BME280;2020;48.682;9.024;2023-08-24T07:50:11;96485.75;;;23.33;61.38
4012;BME280;2020;48.682;9.024;2023-08-24T07:52:40;96479.38;;;23.63;60.42
4012;BME280;2020;48.682;9.024;2023-08-24T07:55:06;96476.50;;;23.82;59.77
4012;BME280;2020;48.682;9.024;2023-08-24T07:57:36;96482.75;;;24.05;58.71
4012;BME280;2020;48.682;9.024;2023-08-24T08:00:02;96489.44;;;24.24;58.41
4012;BME280;2020;48.682;9.024;2023-08-24T08:02:28;96492.97;;;24.47;57.45
4012;BME280;2020;48.682;9.024;2023-08-24T08:04:57;96482.97;;;24.55;57.07
4012;BME280;2020;48.682;9.024;2023-08-24T08:07:23;96476.97;;;24.81;57.77
4012;BME280;2020;48.682;9.024;2023-08-24T08:09:48;96481.22;;;25.05;56.63
4012;BME280;2020;48.682;9.024;2023-08-24T08:12:14;96484.28;;;25.14;55.82
4012;BME280;2020;48.682;9.024;2023-08-24T08:14:39;96485.50;;;25.28;54.70
4012;BME280;2020;48.682;9.024;2023-08-24T08:17:04;96493.28;;;25.57;53.17
4012;BME280;2020;48.682;9.024;2023-08-24T08:19:29;96487.25;;;25.67;53.88
4012;BME280;2020;48.682;9.024;2023-08-24T08:21:55;96496.00;;;25.62;53.98
4012;BME280;2020;48.682;9.024;2023-08-24T08:24:21;96498.81;;;25.78;53.89
4012;BME280;2020;48.682;9.024;2023-08-24T08:26:46;96483.31;;;26.02;53.04
4012;BME280;2020;48.682;9.024;2023-08-24T08:29:11;96481.38;;;26.25;53.76
4012;BME280;2020;48.682;9.024;2023-08-24T08:31:36;96480.19;;;26.48;52.56
4012;BME280;2020;48.682;9.024;2023-08-24T08:34:02;96483.81;;;26.69;51.74
4012;BME280;2020;48.682;9.024;2023-08-24T08:36:29;96479.41;;;26.96;49.95
4012;BME280;2020;48.682;9.024;2023-08-24T08:38:55;96479.91;;;26.93;50.75
4012;BME280;2020;48.682;9.024;2023-08-24T08:41:22;96476.03;;;27.21;49.86
4012;BME280;2020;48.682;9.024;2023-08-24T08:43:48;96466.78;;;27.50;49.07
4012;BME280;2020;48.682;9.024;2023-08-24T08:46:14;96484.88;;;27.27;49.27
4012;BME280;2020;48.682;9.024;2023-08-24T08:48:41;96476.03;;;27.26;49.59
4012;BME280;2020;48.682;9.024;2023-08-24T08:51:07;96471.78;;;27.30;49.47
4012;BME280;2020;48.682;9.024;2023-08-24T08:53:33;96469.94;;;27.41;49.43
4012;BME280;2020;48.682;9.024;2023-08-24T08:55:58;96477.75;;;27.58;49.06
4012;BME280;2020;48.682;9.024;2023-08-24T08:58:28;96477.44;;;27.39;49.13
4012;BME280;2020;48.682;9.024;2023-08-24T09:00:55;96479.56;;;27.48;49.05
4012;BME280;2020;48.682;9.024;2023-08-24T09:03:21;96475.38;;;27.72;49.54
4012;BME280;2020;48.682;9.024;2023-08-24T09:05:47;96463.06;;;27.92;49.28
4012;BME280;2020;48.682;9.024;2023-08-24T09:08:15;96458.78;;;27.96;48.75
4012;BME280;2020;48.682;9.024;2023-08-24T09:10:41;96456.09;;;28.12;48.42
4012;BME280;2020;48.682;9.024;2023-08-24T09:13:07;96449.72;;;28.18;48.80
4012;BME280;2020;48.682;9.024;2023-08-24T09:15:35;96451.03;;;28.31;48.20
4012;BME280;2020;48.682;9.024;2023-08-24T09:18:00;96455.03;;;28.08;47.93
4012;BME280;2020;48.682;9.024;2023-08-24T09:20:27;96439.50;;;28.36;47.98
4012;BME280;2020;48.682;9.024;2023-08-24T09:22:54;96431.22;;;28.37;47.82
4012;BME280;2020;48.682;9.024;2023-08-24T09:25:22;96435.22;;;28.50;47.69
4012;BME280;2020;48.682;9.024;2023-08-24T09:27:56;96422.13;;;28.38;47.66
4012;BME280;2020;48.682;9.024;2023-08-24T09:30:21;96421.78;;;28.71;47.27
4012;BME280;2020;48.682;9.024;2023-08-24T09:32:46;96421.19;;;28.89;46.90
4012;BME280;2020;48.682;9.024;2023-08-24T09:35:12;96421.94;;;29.00;46.17
4012;BME280;2020;48.682;9.024;2023-08-24T09:37:38;96414.88;;;29.20;46.86
4012;BME280;2020;48.682;9.024;2023-08-24T09:40:05;96412.75;;;29.17;45.58
4012;BME280;2020;48.682;9.024;2023-08-24T09:42:38;96402.81;;;29.17;46.20
4012;BME280;2020;48.682;9.024;2023-08-24T09:45:06;96402.00;;;29.22;46.58
4012;BME280;2020;48.682;9.024;2023-08-24T09:47:31;96394.09;;;29.46;45.97
4012;BME280;2020;48.682;9.024;2023-08-24T09:49:57;96392.44;;;29.51;46.66
4012;BME280;2020;48.682;9.024;2023-08-24T09:52:23;96387.56;;;29.58;46.17
4012;BME280;2020;48.682;9.024;2023-08-24T09:54:53;96377.97;;;29.52;46.49
4012;BME280;2020;48.682;9.024;2023-08-24T09:57:19;96368.03;;;29.87;45.82
4012;BME280;2020;48.682;9.024;2023-08-24T09:59:46;96369.53;;;29.98;45.17
4012;BME280;2020;48.682;9.024;2023-08-24T10:02:20;96356.63;;;30.05;45.34
4012;BME280;2020;48.682;9.024;2023-08-24T10:04:49;96352.63;;;30.27;45.27
4012;BME280;2020;48.682;9.024;2023-08-24T10:07:20;96346.81;;;30.20;44.89
4012;BME280;2020;48.682;9.024;2023-08-24T10:09:54;96347.00;;;30.48;44.57
4012;BME280;2020;48.682;9.024;2023-08-24T10:12:24;96338.38;;;30.51;44.64
4012;BME280;2020;48.682;9.024;2023-08-24T10:14:58;96334.75;;;30.42;44.42
4012;BME280;2020;48.682;9.024;2023-08-24T10:17:26;96326.88;;;30.51;44.13
4012;BME280;2020;48.682;9.024;2023-08-24T10:19:52;96335.09;;;30.59;44.24
4012;BME280;2020;48.682;9.024;2023-08-24T10:22:19;96326.75;;;30.37;44.36
4012;BME280;2020;48.682;9.024;2023-08-24T10:24:47;96326.06;;;30.50;45.01
4012;BME280;2020;48.682;9.024;2023-08-24T10:27:13;96319.88;;;30.74;44.50
4012;BME280;2020;48.682;9.024;2023-08-24T10:29:39;96320.53;;;30.85;44.85
4012;BME280;2020;48.682;9.024;2023-08-24T10:32:05;96323.34;;;30.93;43.23
4012;BME280;2020;48.682;9.024;2023-08-24T10:34:32;96316.97;;;30.89;44.66
4012;BME280;2020;48.682;9.024;2023-08-24T10:36:57;96316.56;;;31.20;44.42
4012;BME280;2020;48.682;9.024;2023-08-24T10:39:31;96315.56;;;31.30;43.38
4012;BME280;2020;48.682;9.024;2023-08-24T10:42:00;96307.13;;;31.70;43.17
4012;BME280;2020;48.682;9.024;2023-08-24T10:44:36;96311.84;;;31.78;43.29
4012;BME280;2020;48.682;9.024;2023-08-24T10:49:43;96297.81;;;31.48;42.89
4012;BME280;2020;48.682;9.024;2023-08-24T10:52:22;96293.63;;;31.42;43.42
4012;BME280;2020;48.682;9.024;2023-08-24T10:54:52;96299.41;;;31.83;44.54
4012;BME280;2020;48.682;9.024;2023-08-24T10:57:22;96294.38;;;31.62;43.68
4012;BME280;2020;48.682;9.024;2023-08-24T11:00:17;96297.41;;;31.74;43.36
4012;BME280;2020;48.682;9.024;2023-08-24T11:02:49;96285.59;;;31.70;43.38
4012;BME280;2020;48.682;9.024;2023-08-24T11:05:17;96283.19;;;31.55;43.33
4012;BME280;2020;48.682;9.024;2023-08-24T11:07:56;96274.34;;;31.68;42.98
4012;BME280;2020;48.682;9.024;2023-08-24T11:10:46;96264.06;;;31.42;43.66
4012;BME280;2020;48.682;9.024;2023-08-24T11:13:14;96269.72;;;31.88;43.12
4012;BME280;2020;48.682;9.024;2023-08-24T11:15:44;96264.63;;;32.00;44.10
4012;BME280;2020;48.682;9.024;2023-08-24T11:20:56;96260.31;;;32.27;42.75
4012;BME280;2020;48.682;9.024;2023-08-24T11:23:23;96259.03;;;32.38;42.10
4012;BME280;2020;48.682;9.024;2023-08-24T11:25:50;96253.22;;;32.59;41.38
4012;BME280;2020;48.682;9.024;2023-08-24T11:28:23;96253.94;;;32.23;41.77
4012;BME280;2020;48.682;9.024;2023-08-24T11:30:49;96239.88;;;32.26;42.25
4012;BME280;2020;48.682;9.024;2023-08-24T11:33:16;96236.78;;;32.47;42.56
4012;BME280;2020;48.682;9.024;2023-08-24T11:35:43;96239.47;;;32.84;41.41
4012;BME280;2020;48.682;9.024;2023-08-24T11:38:09;96241.97;;;32.57;41.48
4012;BME280;2020;48.682;9.024;2023-08-24T11:40:34;96234.38;;;32.59;41.25
4012;BME280;2020;48.682;9.024;2023-08-24T11:43:00;96241.97;;;32.57;41.44
4012;BME280;2020;48.682;9.024;2023-08-24T11:45:33;96234.59;;;32.21;42.31
4012;BME280;2020;48.682;9.024;2023-08-24T11:47:59;96228.00;;;32.27;42.48
4012;BME280;2020;48.682;9.024;2023-08-24T11:50:26;96215.41;;;32.64;42.24
4012;BME280;2020;48.682;9.024;2023-08-24T11:52:52;96220.78;;;32.64;42.50
4012;BME280;2020;48.682;9.024;2023-08-24T11:55:17;96226.44;;;32.77;41.00
4012;BME280;2020;48.682;9.024;2023-08-24T11:57:43;96228.00;;;32.55;41.67
4012;BME280;2020;48.682;9.024;2023-08-24T12:00:09;96225.03;;;32.43;42.15
4012;BME280;2020;48.682;9.024;2023-08-24T12:02:39;96214.66;;;32.50;41.93
4012;BME280;2020;48.682;9.024;2023-08-24T12:05:20;96220.53;;;32.24;42.14
4012;BME280;2020;48.682;9.024;2023-08-24T12:07:45;96212.66;;;32.42;42.18
4012;BME280;2020;48.682;9.024;2023-08-24T12:10:12;96215.03;;;32.57;41.71
4012;BME280;2020;48.682;9.024;2023-08-24T12:12:37;96219.03;;;32.46;42.03
4012;BME280;2020;48.682;9.024;2023-08-24T12:15:02;96220.56;;;32.75;41.87
4012;BME280;2020;48.682;9.024;2023-08-24T12:17:28;96210.09;;;32.96;41.40
4012;BME280;2020;48.682;9.024;2023-08-24T12:20:00;96199.00;;;33.20;41.44
4012;BME280;2020;48.682;9.024;2023-08-24T12:22:26;96190.88;;;33.43;40.29
4012;BME280;2020;48.682;9.024;2023-08-24T12:24:51;96179.88;;;33.71;40.09
4012;BME280;2020;48.682;9.024;2023-08-24T12:27:21;96170.34;;;33.65;40.21
4012;BME280;2020;48.682;9.024;2023-08-24T12:29:47;96162.31;;;33.82;39.95
4012;BME280;2020;48.682;9.024;2023-08-24T12:32:12;96157.13;;;33.95;39.54
4012;BME280;2020;48.682;9.024;2023-08-24T12:34:40;96155.31;;;33.81;40.18
4012;BME280;2020;48.682;9.024;2023-08-24T12:37:05;96153.00;;;34.06;39.09
4012;BME280;2020;48.682;9.024;2023-08-24T12:39:38;96149.22;;;34.25;38.42
4012;BME280;2020;48.682;9.024;2023-08-24T12:42:04;96136.19;;;34.27;39.26
4012;BME280;2020;48.682;9.024;2023-08-24T12:44:29;96127.78;;;34.55;38.74
4012;BME280;2020;48.682;9.024;2023-08-24T12:46:55;96128.72;;;34.15;38.22
4012;BME280;2020;48.682;9.024;2023-08-24T12:49:20;96116.72;;;33.72;39.17
4012;BME280;2020;48.682;9.024;2023-08-24T12:51:45;96122.41;;;33.53;38.94
4012;BME280;2020;48.682;9.024;2023-08-24T12:54:11;96127.38;;;33.86;38.74
4012;BME280;2020;48.682;9.024;2023-08-24T12:56:38;96129.19;;;34.08;38.61
4012;BME280;2020;48.682;9.024;2023-08-24T12:59:04;96124.09;;;33.98;38.19
4012;BME280;2020;48.682;9.024;2023-08-24T13:01:29;96118.56;;;34.03;38.22
4012;BME280;2020;48.682;9.024;2023-08-24T13:03:55;96126.16;;;34.27;37.92
4012;BME280;2020;48.682;9.024;2023-08-24T13:06:20;96110.44;;;34.38;37.42
4012;BME280;2020;48.682;9.024;2023-08-24T13:08:46;96098.72;;;34.52;36.31
4012;BME280;2020;48.682;9.024;2023-08-24T13:11:11;96098.66;;;34.69;36.01
4012;BME280;2020;48.682;9.024;2023-08-24T13:13:37;96119.84;;;34.59;35.86
4012;BME280;2020;48.682;9.024;2023-08-24T13:16:02;96109.34;;;34.57;36.29
4012;BME280;2020;48.682;9.024;2023-08-24T13:18:27;96097.69;;;34.83;35.96
4012;BME280;2020;48.682;9.024;2023-08-24T13:20:53;96106.47;;;34.62;35.64
4012;BME280;2020;48.682;9.024;2023-08-24T13:23:18;96101.19;;;34.75;35.24
4012;BME280;2020;48.682;9.024;2023-08-24T13:25:43;96104.44;;;34.06;36.56